Time;durP1;ratioP1;P1;durP2;ratioP2;P2;SDS_P1;SDS_P2;PMS_P1;PMS_P2;Temp;Humidity;BMP_temperature;BMP_pressure;BME280_temperature;BME280_humidity;BME280_pressure;Samples;Min_cycle;Max_cycle;Signal;HPM_P1;HPM_P2
2022/04/05 00:01:37;;;;;;;9.73;1.02;;;6.40;99.90;;;;;;5087284;28;20536;-84
2022/04/05 00:04:03;;;;;;;10.02;1.40;;;6.50;99.90;;;;;;5071072;28;20589;-85
2022/04/05 00:06:28;;;;;;;4.15;0.65;;;6.80;99.90;;;;;;5082390;28;20039;-84
2022/04/05 00:08:54;;;;;;;11.95;1.58;;;6.70;99.90;;;;;;5088042;28;20039;-87
2022/04/05 00:11:19;;;;;;;9.80;1.50;;;6.70;99.90;;;;;;5108875;28;20048;-84
2022/04/05 00:13:45;;;;;;;6.00;0.93;;;6.60;99.90;;;;;;5085886;28;20027;-81
2022/04/05 00:16:11;;;;;;;4.22;0.75;;;6.50;99.90;;;;;;5105931;28;20138;-83
2022/04/05 00:18:38;;;;;;;10.63;2.28;;;8.50;99.90;;;;;;5086310;28;20552;-88
2022/04/05 00:21:04;;;;;;;6.43;0.90;;;6.40;99.90;;;;;;5070819;28;20065;-85
2022/04/05 00:23:30;;;;;;;7.78;0.85;;;6.50;99.90;;;;;;5072939;28;20537;-84
2022/04/05 00:25:56;;;;;;;7.18;0.80;;;6.40;99.90;;;;;;5082217;28;20039;-86
2022/04/05 00:28:22;;;;;;;9.70;0.98;;;6.70;99.90;;;;;;5106702;28;20130;-82
2022/04/05 00:30:47;;;;;;;6.53;0.80;;;6.60;99.90;;;;;;5088350;28;20528;-83
2022/04/05 00:33:13;;;;;;;9.93;1.08;;;6.50;99.90;;;;;;5108929;28;20044;-85
2022/04/05 00:35:38;;;;;;;8.02;1.35;;;6.60;99.90;;;;;;5072206;28;20105;-84
2022/04/05 00:38:04;;;;;;;8.30;0.85;;;6.50;99.90;;;;;;5088985;28;20065;-87
2022/04/05 00:40:30;;;;;;;5.20;1.17;;;6.50;99.90;;;;;;5073545;28;20072;-86
2022/04/05 00:42:56;;;;;;;6.93;1.38;;;6.50;99.90;;;;;;5102292;28;20068;-85
2022/04/05 00:45:22;;;;;;;12.27;0.90;;;6.50;99.90;;;;;;5087839;28;20082;-85
2022/04/05 00:47:51;;;;;;;7.05;0.80;;;6.50;99.90;;;;;;5109161;28;20043;-81
2022/04/05 00:50:22;;;;;;;7.30;1.10;;;6.50;99.90;;;;;;5090089;28;20047;-84
2022/04/05 00:52:48;;;;;;;9.93;1.33;;;6.50;99.90;;;;;;5090890;28;20126;-84
2022/04/05 00:55:20;;;;;;;14.60;1.02;;;6.60;99.90;;;;;;5108902;28;20123;-85
2022/04/05 00:57:48;;;;;;;6.63;0.77;;;6.20;99.90;;;;;;5070742;28;20558;-83
2022/04/05 01:00:14;;;;;;;9.93;1.45;;;6.20;99.90;;;;;;5085581;28;20449;-84
2022/04/05 01:02:43;;;;;;;8.48;1.52;;;6.50;99.90;;;;;;5086607;28;20043;-84
2022/04/05 01:05:09;;;;;;;8.15;1.45;;;6.40;99.90;;;;;;5087750;28;20540;-85
2022/04/05 01:07:39;;;;;;;6.65;1.10;;;6.50;99.90;;;;;;5072125;28;20040;-84
2022/04/05 01:10:10;;;;;;;6.70;0.93;;;6.40;99.90;;;;;;5069786;28;20043;-81
2022/04/05 01:12:36;;;;;;;12.32;1.42;;;6.50;99.90;;;;;;5088690;28;20040;-85
2022/04/05 01:15:02;;;;;;;7.85;1.02;;;6.60;99.90;;;;;;5105948;28;20028;-85
2022/04/05 01:17:28;;;;;;;9.02;0.80;;;6.50;99.90;;;;;;5071715;28;20122;-84
2022/04/05 01:19:54;;;;;;;7.10;1.10;;;6.50;99.90;;;;;;5087551;28;20032;-85
2022/04/05 01:22:20;;;;;;;6.07;1.00;;;6.50;99.90;;;;;;5089169;28;20050;-82
2022/04/05 01:24:46;;;;;;;9.20;1.15;;;6.50;99.90;;;;;;5082841;28;20039;-84
2022/04/05 01:27:18;;;;;;;7.70;1.10;;;6.50;99.90;;;;;;5071050;28;20040;-80
2022/04/05 01:29:45;;;;;;;9.77;1.05;;;6.50;99.90;;;;;;5087016;28;20043;-82
2022/04/05 01:32:11;;;;;;;10.85;1.30;;;6.40;99.90;;;;;;5088377;28;20047;-84
2022/04/05 01:34:39;;;;;;;8.85;1.48;;;6.40;99.90;;;;;;5066472;28;20044;-86
2022/04/05 01:37:08;;;;;;;6.75;1.20;;;6.40;99.90;;;;;;5088853;28;20093;-80
2022/04/05 01:39:35;;;;;;;5.90;1.00;;;6.20;99.90;;;;;;5106030;28;20040;-86
2022/04/05 01:42:06;;;;;;;8.55;1.45;;;7.80;99.90;;;;;;5088552;28;20536;-85
2022/04/05 01:44:34;;;;;;;11.45;1.00;;;6.50;99.90;;;;;;5088986;28;20068;-83
2022/04/05 01:47:05;;;;;;;6.43;1.05;;;6.30;99.90;;;;;;5052877;28;20049;-86
2022/04/05 01:49:30;;;;;;;11.93;1.27;;;6.60;99.90;;;;;;5088112;28;20080;-82
2022/04/05 01:51:56;;;;;;;11.57;1.40;;;6.40;99.90;;;;;;5085771;28;20040;-83
2022/04/05 01:54:21;;;;;;;9.75;1.02;;;6.50;99.90;;;;;;5071819;28;20114;-86
2022/04/05 01:56:48;;;;;;;9.88;1.35;;;6.50;99.90;;;;;;5070875;28;20043;-81
2022/04/05 01:59:26;;;;;;;10.38;1.17;;;6.50;99.90;;;;;;5085328;28;20036;-82
2022/04/05 02:01:52;;;;;;;10.60;1.33;;;7.10;99.90;;;;;;5086033;28;20045;-82
2022/04/05 02:04:19;;;;;;;19.67;1.65;;;6.40;99.90;;;;;;5082260;28;20272;-82
2022/04/05 02:06:45;;;;;;;23.15;3.28;;;6.50;99.90;;;;;;5101635;28;20248;-81
2022/04/05 02:09:14;;;;;;;14.68;1.52;;;6.50;99.90;;;;;;5087425;28;20036;-85
2022/04/05 02:11:41;;;;;;;14.30;1.73;;;6.50;99.90;;;;;;5106535;28;20039;-84
2022/04/05 02:14:07;;;;;;;15.48;2.30;;;6.20;99.90;;;;;;5105914;28;20028;-83
2022/04/05 02:16:32;;;;;;;12.98;1.75;;;6.30;99.90;;;;;;5108782;28;20036;-86
2022/04/05 02:18:58;;;;;;;11.40;1.73;;;6.50;99.90;;;;;;5088720;28;20044;-85
2022/04/05 02:21:24;;;;;;;18.13;2.10;;;6.50;99.90;;;;;;5089048;28;20120;-79
2022/04/05 02:23:50;;;;;;;18.80;2.63;;;6.50;99.90;;;;;;5072256;28;20052;-84
2022/04/05 02:26:16;;;;;;;8.77;1.75;;;6.50;99.90;;;;;;5089469;28;20075;-82
2022/04/05 02:28:42;;;;;;;21.30;2.22;;;6.50;99.90;;;;;;5071943;28;20044;-78
2022/04/05 02:31:08;;;;;;;13.05;2.05;;;6.50;99.90;;;;;;5110430;28;20048;-82
2022/04/05 02:33:34;;;;;;;19.65;2.47;;;6.50;99.90;;;;;;5088985;28;20044;-84
2022/04/05 02:36:00;;;;;;;16.30;2.22;;;6.60;99.90;;;;;;5088602;28;20069;-86
2022/04/05 02:38:26;;;;;;;15.15;1.88;;;8.30;99.90;;;;;;5090462;28;20077;-82
2022/04/05 02:40:52;;;;;;;13.32;1.90;;;6.60;99.90;;;;;;5091503;28;20524;-80
2022/04/05 02:43:18;;;;;;;14.57;2.50;;;6.50;99.90;;;;;;5109183;28;20070;-86
2022/04/05 02:45:43;;;;;;;19.55;2.92;;;6.50;99.90;;;;;;5092824;28;20039;-79
2022/04/05 02:48:09;;;;;;;12.50;2.05;;;6.50;99.90;;;;;;5072778;28;20279;-86
2022/04/05 02:50:35;;;;;;;15.48;2.08;;;8.40;99.90;;;;;;5089962;28;20042;-86
2022/04/05 02:53:01;;;;;;;16.48;2.78;;;6.60;99.90;;;;;;5073485;28;20035;-82
2022/04/05 02:55:27;;;;;;;24.63;3.25;;;6.60;99.90;;;;;;5109178;28;20055;-84
2022/04/05 02:57:52;;;;;;;18.02;2.97;;;6.60;99.90;;;;;;5073089;28;20498;-80
2022/04/05 03:00:19;;;;;;;22.10;2.97;;;6.40;99.90;;;;;;5072417;28;20047;-80
2022/04/05 03:02:45;;;;;;;17.00;3.00;;;6.60;99.90;;;;;;5090230;28;20032;-83
2022/04/05 03:05:13;;;;;;;16.50;2.58;;;7.90;99.90;;;;;;5089397;28;20101;-82
2022/04/05 03:07:40;;;;;;;19.10;2.38;;;6.50;99.90;;;;;;5088204;28;20402;-85
2022/04/05 03:10:11;;;;;;;25.85;3.33;;;6.50;99.90;;;;;;5090135;28;20051;-84
2022/04/05 03:12:38;;;;;;;14.10;2.38;;;6.60;99.90;;;;;;5091665;28;20683;-85
2022/04/05 03:15:06;;;;;;;21.85;3.05;;;8.00;99.90;;;;;;5073508;28;20045;-83
2022/04/05 03:17:32;;;;;;;17.52;3.25;;;6.50;99.90;;;;;;5075407;28;20039;-79
2022/04/05 03:20:04;;;;;;;26.52;3.13;;;6.50;99.90;;;;;;5088562;28;20114;-85
2022/04/05 03:22:30;;;;;;;12.75;2.42;;;6.50;99.90;;;;;;5103170;28;20067;-84
2022/04/05 03:24:56;;;;;;;17.83;2.22;;;6.50;99.90;;;;;;5083067;28;20473;-84
2022/04/05 03:27:21;;;;;;;24.42;3.03;;;6.50;99.90;;;;;;5089161;28;20047;-84
2022/04/05 03:29:47;;;;;;;13.98;2.50;;;6.50;99.90;;;;;;5108155;28;20058;-83
2022/04/05 03:32:12;;;;;;;19.58;2.42;;;6.50;99.90;;;;;;5088564;28;20052;-85
2022/04/05 03:34:39;;;;;;;17.15;2.53;;;6.40;99.90;;;;;;5108747;28;20032;-84
2022/04/05 03:37:05;;;;;;;19.40;3.42;;;8.30;99.90;;;;;;5089696;28;20399;-82
2022/04/05 03:39:30;;;;;;;16.75;3.10;;;6.30;99.90;;;;;;5091287;28;20035;-83
2022/04/05 03:41:57;;;;;;;18.70;2.35;;;6.40;99.90;;;;;;5091151;28;20543;-84
2022/04/05 03:44:24;;;;;;;15.13;2.17;;;6.40;99.90;;;;;;5090552;28;20127;-80
2022/04/05 03:46:50;;;;;;;17.52;2.25;;;6.80;99.90;;;;;;5107160;28;20476;-84
2022/04/05 03:49:15;;;;;;;19.52;3.22;;;6.40;99.90;;;;;;5073962;28;20130;-84
2022/04/05 03:51:41;;;;;;;21.10;2.30;;;6.70;99.90;;;;;;5107133;28;20395;-83
2022/04/05 03:54:06;;;;;;;17.73;2.33;;;6.40;99.90;;;;;;5070561;28;20036;-85
2022/04/05 03:56:32;;;;;;;20.80;3.50;;;7.80;99.90;;;;;;5073538;28;20514;-80
2022/04/05 03:58:58;;;;;;;17.50;2.63;;;6.40;99.90;;;;;;5088606;28;20050;-83
2022/04/05 04:01:23;;;;;;;17.88;2.15;;;6.40;99.90;;;;;;5089775;28;20044;-82
2022/04/05 04:03:49;;;;;;;23.73;4.35;;;6.50;99.90;;;;;;5053416;28;20039;-84
2022/04/05 04:06:14;;;;;;;16.92;2.45;;;6.40;99.90;;;;;;5088152;28;20057;-84
2022/04/05 04:08:40;;;;;;;13.70;2.60;;;6.20;99.90;;;;;;5073613;28;20352;-85
2022/04/05 04:11:06;;;;;;;19.45;2.70;;;6.40;99.90;;;;;;5107545;28;20040;-82
2022/04/05 04:13:31;;;;;;;22.40;2.35;;;6.40;99.90;;;;;;5088542;28;20160;-85
2022/04/05 04:15:57;;;;;;;13.55;2.22;;;6.40;99.90;;;;;;5086515;28;20043;-83
2022/04/05 04:18:23;;;;;;;21.20;2.55;;;6.40;99.90;;;;;;5075281;28;21086;-84
2022/04/05 04:20:48;;;;;;;27.35;3.55;;;6.40;99.90;;;;;;5086226;28;20486;-83
2022/04/05 04:23:15;;;;;;;20.05;2.65;;;6.40;99.90;;;;;;5065879;28;20040;-81
2022/04/05 04:25:41;;;;;;;15.32;2.45;;;7.30;99.90;;;;;;5082962;28;20100;-83
2022/04/05 04:28:07;;;;;;;19.25;2.10;;;6.30;99.90;;;;;;5106790;28;20483;-84
2022/04/05 04:30:34;;;;;;;14.32;1.75;;;6.30;99.90;;;;;;5071409;28;20433;-84
2022/04/05 04:33:00;;;;;;;14.77;2.00;;;6.30;99.90;;;;;;5068672;28;20117;-82
2022/04/05 04:35:27;;;;;;;18.63;3.10;;;6.30;99.90;;;;;;5071419;28;20047;-85
2022/04/05 04:37:52;;;;;;;13.32;2.40;;;6.10;99.90;;;;;;5080689;28;20090;-83
2022/04/05 04:40:18;;;;;;;18.45;2.05;;;6.30;99.90;;;;;;5086506;28;20028;-80
2022/04/05 04:42:44;;;;;;;19.35;2.25;;;6.30;99.90;;;;;;5073947;28;20043;-85
2022/04/05 04:45:10;;;;;;;20.55;1.90;;;6.30;99.90;;;;;;4380471;28;10000728;-81
2022/04/05 04:47:37;;;;;;;25.20;2.88;;;6.30;99.90;;;;;;5081177;28;20063;-77
2022/04/05 04:50:04;;;;;;;18.55;2.40;;;6.30;99.90;;;;;;5067148;28;20039;-84
2022/04/05 04:52:30;;;;;;;20.48;2.40;;;6.30;99.90;;;;;;5068680;28;20063;-80
2022/04/05 04:54:56;;;;;;;29.10;3.10;;;5.60;99.90;;;;;;5088007;28;20040;-78
2022/04/05 04:57:23;;;;;;;20.13;3.47;;;5.90;99.90;;;;;;5085322;28;20055;-84
2022/04/05 04:59:49;;;;;;;15.68;2.20;;;5.80;99.90;;;;;;5096443;28;20032;-88
2022/04/05 05:02:15;;;;;;;17.77;2.35;;;6.10;99.90;;;;;;5087471;28;20104;-82
2022/04/05 05:04:41;;;;;;;12.35;2.30;;;6.00;99.90;;;;;;5104843;28;20039;-87
2022/04/05 05:07:06;;;;;;;16.92;3.22;;;6.20;99.90;;;;;;5071294;28;20047;-88
2022/04/05 05:09:33;;;;;;;16.63;3.08;;;5.90;99.90;;;;;;5071326;28;20355;-86
2022/04/05 05:12:00;;;;;;;13.90;2.10;;;6.30;99.90;;;;;;5066193;28;20044;-86
2022/04/05 05:14:27;;;;;;;14.80;2.30;;;6.20;99.90;;;;;;5082543;28;20051;-86
2022/04/05 05:16:53;;;;;;;11.00;2.22;;;6.30;99.90;;;;;;5104265;28;20111;-85
2022/04/05 05:19:20;;;;;;;17.40;2.55;;;6.20;99.90;;;;;;5088745;28;20448;-87
2022/04/05 05:21:45;;;;;;;13.20;2.80;;;6.20;99.90;;;;;;5102170;28;20039;-79
2022/04/05 05:24:11;;;;;;;17.35;3.97;;;6.20;99.90;;;;;;5072468;28;20180;-84
2022/04/05 05:26:36;;;;;;;10.90;2.22;;;6.30;99.90;;;;;;5107446;28;20033;-82
2022/04/05 05:29:02;;;;;;;11.88;2.60;;;6.40;99.90;;;;;;5098365;28;20131;-84
2022/04/05 05:31:28;;;;;;;16.08;2.22;;;5.60;99.90;;;;;;5078048;28;20075;-86
2022/04/05 05:33:53;;;;;;;12.25;2.72;;;6.30;99.90;;;;;;5079119;28;20547;-82
2022/04/05 05:36:19;;;;;;;15.00;2.60;;;6.10;99.90;;;;;;5096756;28;20255;-84
2022/04/05 05:38:44;;;;;;;21.25;2.63;;;6.30;99.90;;;;;;5080513;28;20505;-81
2022/04/05 05:41:10;;;;;;;15.23;2.67;;;6.30;99.90;;;;;;5081628;28;20380;-83
2022/04/05 05:43:37;;;;;;;9.65;2.15;;;6.30;99.90;;;;;;5080370;28;20158;-86
2022/04/05 05:46:03;;;;;;;15.45;3.33;;;6.30;99.90;;;;;;5077751;28;20083;-82
2022/04/05 05:48:30;;;;;;;12.23;2.60;;;6.30;99.90;;;;;;5099261;28;20059;-85
2022/04/05 05:50:56;;;;;;;10.23;2.92;;;6.30;99.90;;;;;;5081943;28;20127;-80
2022/04/05 05:53:22;;;;;;;8.63;2.00;;;6.80;99.90;;;;;;5082538;28;20485;-86
2022/04/05 05:55:48;;;;;;;15.38;3.30;;;6.30;99.90;;;;;;5096466;28;20044;-85
2022/04/05 05:58:14;;;;;;;14.05;3.10;;;6.30;99.90;;;;;;5078442;28;20115;-80
2022/04/05 06:00:39;;;;;;;16.85;2.72;;;6.30;99.90;;;;;;5081750;28;20110;-87
2022/04/05 06:03:05;;;;;;;11.82;2.45;;;6.30;99.90;;;;;;5085598;28;20371;-79
2022/04/05 06:05:31;;;;;;;15.43;3.45;;;6.30;99.90;;;;;;5079408;28;20399;-80
2022/04/05 06:07:57;;;;;;;15.88;2.67;;;6.30;99.90;;;;;;5077219;28;20055;-80
2022/04/05 06:10:24;;;;;;;15.05;2.47;;;6.30;99.90;;;;;;5080094;28;20048;-86
2022/04/05 06:12:51;;;;;;;11.90;2.13;;;6.30;99.90;;;;;;5068443;28;20510;-83
2022/04/05 06:15:19;;;;;;;13.30;2.83;;;6.40;99.90;;;;;;5099064;28;20083;-78
2022/04/05 06:17:46;;;;;;;18.33;3.00;;;6.40;99.90;;;;;;5081618;28;20077;-86
2022/04/05 06:20:14;;;;;;;9.18;2.97;;;6.40;99.90;;;;;;5082145;28;20040;-80
2022/04/05 06:22:48;;;;;;;19.30;3.35;;;6.70;99.90;;;;;;5064472;28;20036;-81
2022/04/05 06:25:17;;;;;;;16.38;3.08;;;6.50;99.90;;;;;;5064326;28;20146;-80
2022/04/05 06:27:43;;;;;;;13.68;2.60;;;6.50;99.90;;;;;;5096636;28;20040;-80
2022/04/05 06:30:10;;;;;;;9.82;2.50;;;6.50;99.90;;;;;;5099065;28;20051;-80
2022/04/05 06:32:36;;;;;;;15.23;2.63;;;6.50;99.90;;;;;;5081842;28;20052;-82
2022/04/05 06:35:02;;;;;;;14.27;2.28;;;6.60;99.90;;;;;;5080658;28;20032;-85
2022/04/05 06:37:28;;;;;;;17.13;2.20;;;6.60;99.90;;;;;;5063945;28;20048;-80
2022/04/05 06:39:54;;;;;;;14.30;3.03;;;6.60;99.90;;;;;;5097397;28;20559;-83
2022/04/05 06:42:20;;;;;;;16.08;2.33;;;6.60;99.90;;;;;;5064550;28;20052;-80
2022/04/05 06:44:45;;;;;;;13.90;1.60;;;6.60;99.90;;;;;;5081326;28;20040;-81
2022/04/05 06:47:11;;;;;;;7.07;1.92;;;6.60;99.90;;;;;;5081577;28;20387;-81
2022/04/05 06:49:38;;;;;;;15.85;2.08;;;6.60;99.90;;;;;;5078373;28;20047;-80
2022/04/05 06:52:04;;;;;;;9.35;2.00;;;6.70;99.90;;;;;;5081388;28;20047;-79
2022/04/05 06:54:30;;;;;;;16.98;1.83;;;6.70;99.90;;;;;;5079538;28;20095;-80
2022/04/05 06:56:55;;;;;;;9.00;1.85;;;6.70;99.90;;;;;;5080693;28;20043;-80
2022/04/05 06:59:21;;;;;;;10.00;2.17;;;6.70;99.90;;;;;;5081380;28;20047;-80
2022/04/05 07:01:47;;;;;;;11.98;2.08;;;6.70;99.90;;;;;;5105921;28;20065;-80
2022/04/05 07:04:12;;;;;;;11.55;2.22;;;6.80;99.90;;;;;;5047344;28;20406;-80
2022/04/05 07:06:38;;;;;;;9.13;2.00;;;6.80;99.90;;;;;;5067442;28;20044;-81
2022/04/05 07:09:05;;;;;;;6.32;1.60;;;6.80;99.90;;;;;;5084461;28;20150;-83
2022/04/05 07:11:31;;;;;;;7.88;1.80;;;6.70;99.90;;;;;;5072261;28;20043;-80
2022/04/05 07:13:57;;;;;;;10.07;1.90;;;6.80;99.90;;;;;;5064295;28;20052;-85
2022/04/05 07:16:23;;;;;;;12.70;2.53;;;6.80;99.90;;;;;;5065061;28;20052;-81
2022/04/05 07:18:49;;;;;;;8.43;3.00;;;6.70;99.90;;;;;;5067551;28;20463;-79
2022/04/05 07:21:15;;;;;;;6.93;2.03;;;6.70;99.90;;;;;;5103733;28;20071;-81
2022/04/05 07:23:41;;;;;;;7.53;2.22;;;6.40;99.90;;;;;;5083610;28;20048;-80
2022/04/05 07:26:07;;;;;;;8.75;2.50;;;6.80;99.90;;;;;;5083465;28;20046;-82
2022/04/05 07:28:33;;;;;;;9.98;2.63;;;6.80;99.90;;;;;;5079870;28;20131;-81
2022/04/05 07:30:58;;;;;;;10.15;2.30;;;8.30;99.90;;;;;;5079059;28;20119;-80
2022/04/05 07:33:24;;;;;;;12.35;2.13;;;6.80;99.90;;;;;;5078033;28;20037;-80
2022/04/05 07:35:50;;;;;;;7.03;2.10;;;6.90;99.90;;;;;;5081046;28;20062;-81
2022/04/05 07:38:17;;;;;;;17.02;2.20;;;6.90;99.90;;;;;;5080669;28;20110;-80
2022/04/05 07:40:48;;;;;;;8.38;1.80;;;6.90;99.90;;;;;;5082219;28;20058;-80
2022/04/05 07:43:17;;;;;;;10.80;1.90;;;6.90;99.90;;;;;;5079043;28;20091;-81
2022/04/05 07:45:44;;;;;;;8.00;1.73;;;6.90;99.90;;;;;;5079565;28;20055;-80
2022/04/05 07:48:10;;;;;;;9.43;2.10;;;6.90;99.90;;;;;;5082521;28;20044;-80
2022/04/05 07:50:36;;;;;;;10.70;1.95;;;6.90;99.90;;;;;;5082098;28;20048;-81
2022/04/05 07:53:02;;;;;;;9.13;1.92;;;6.90;99.90;;;;;;5077664;28;20036;-81
2022/04/05 07:55:28;;;;;;;5.28;1.63;;;6.90;99.90;;;;;;5077459;28;20044;-81
2022/04/05 07:57:54;;;;;;;8.70;1.65;;;6.90;99.90;;;;;;5081962;28;20051;-84
2022/04/05 08:00:20;;;;;;;8.68;1.35;;;6.90;99.90;;;;;;5082338;28;20399;-80
2022/04/05 08:02:46;;;;;;;10.68;2.00;;;6.80;99.90;;;;;;5080451;28;20045;-81
2022/04/05 08:05:12;;;;;;;16.20;2.03;;;6.90;99.90;;;;;;5081810;28;20139;-83
2022/04/05 08:07:38;;;;;;;9.05;1.50;;;6.80;99.90;;;;;;5087254;28;20629;-77
2022/04/05 08:10:04;;;;;;;6.35;1.08;;;7.00;99.90;;;;;;5072848;28;20051;-81
2022/04/05 08:12:50;;;;;;;5.72;1.80;;;7.00;99.90;;;;;;5056702;28;20055;-81
2022/04/05 08:15:21;;;;;;;8.23;1.63;;;7.00;99.90;;;;;;5084540;28;20105;-84
2022/04/05 08:17:47;;;;;;;9.68;1.83;;;6.90;99.90;;;;;;5070713;28;20044;-81
2022/04/05 08:20:13;;;;;;;5.82;1.20;;;7.00;99.90;;;;;;5086412;28;20032;-86
2022/04/05 08:22:40;;;;;;;10.40;2.22;;;7.00;99.90;;;;;;5080898;28;20407;-80
2022/04/05 08:25:07;;;;;;;7.68;1.10;;;7.00;99.90;;;;;;5061671;28;20044;-83
2022/04/05 08:27:33;;;;;;;8.15;1.67;;;7.00;99.90;;;;;;5086380;28;20421;-80
2022/04/05 08:29:59;;;;;;;9.13;1.60;;;7.00;99.90;;;;;;5085910;28;20040;-81
2022/04/05 08:32:25;;;;;;;5.50;1.20;;;7.10;99.90;;;;;;5070096;28;20190;-81
2022/04/05 08:34:51;;;;;;;5.35;1.08;;;7.10;99.90;;;;;;5085697;28;20048;-80
2022/04/05 08:37:17;;;;;;;5.20;1.08;;;7.20;99.90;;;;;;5070574;28;20052;-84
2022/04/05 08:39:42;;;;;;;5.35;0.43;;;7.20;99.90;;;;;;5091344;28;20060;-87
2022/04/05 08:42:08;;;;;;;3.42;0.57;;;7.20;99.90;;;;;;5069404;28;20047;-85
2022/04/05 08:44:34;;;;;;;4.60;0.90;;;7.30;99.90;;;;;;5089834;28;20048;-82
2022/04/05 08:47:01;;;;;;;6.53;0.75;;;7.30;99.90;;;;;;5068640;28;20040;-83
2022/04/05 08:49:28;;;;;;;4.38;1.00;;;7.30;99.90;;;;;;5084809;28;20162;-84
2022/04/05 08:51:54;;;;;;;4.05;0.75;;;7.40;99.90;;;;;;5090613;28;20060;-80
2022/04/05 08:54:20;;;;;;;3.88;1.55;;;7.40;99.90;;;;;;5086167;28;20036;-81
2022/04/05 08:56:47;;;;;;;11.48;1.15;;;7.40;99.90;;;;;;5081853;28;20098;-87
2022/04/05 08:59:16;;;;;;;5.53;1.20;;;7.40;99.90;;;;;;5090809;28;20036;-86
2022/04/05 09:01:42;;;;;;;4.78;0.60;;;7.40;99.90;;;;;;5088652;28;20040;-85
2022/04/05 09:04:07;;;;;;;4.05;1.15;;;7.50;99.90;;;;;;5086882;28;20055;-86
2022/04/05 09:06:36;;;;;;;4.28;0.70;;;9.40;99.90;;;;;;5082709;28;20476;-84
2022/04/05 09:09:19;;;;;;;5.28;0.80;;;6.80;99.90;;;;;;5082156;28;20048;-80
2022/04/05 09:11:46;;;;;;;4.18;1.20;;;7.50;99.90;;;;;;5087245;28;20123;-85
2022/04/05 09:14:12;;;;;;;2.08;0.95;;;7.50;99.90;;;;;;5083992;28;20458;-85
2022/04/05 09:16:38;;;;;;;6.47;2.05;;;7.60;99.90;;;;;;5071646;28;20055;-82
2022/04/05 09:19:12;;;;;;;8.88;1.33;;;7.60;99.90;;;;;;5082616;28;20063;-80
2022/04/05 09:21:57;;;;;;;4.38;1.25;;;7.60;99.90;;;;;;5090697;28;20066;-82
2022/04/05 09:24:35;;;;;;;9.52;1.40;;;7.50;99.90;;;;;;5080292;28;20387;-85
2022/04/05 09:27:02;;;;;;;6.95;2.00;;;7.60;99.90;;;;;;5086600;28;20047;-81
2022/04/05 09:29:45;;;;;;;4.68;1.30;;;7.60;99.90;;;;;;5057758;28;20051;-85
2022/04/05 09:32:35;;;;;;;7.93;2.08;;;7.50;99.90;;;;;;5064572;28;20047;-82
2022/04/05 09:35:01;;;;;;;9.65;1.70;;;7.50;99.90;;;;;;5072048;28;20119;-86
2022/04/05 09:37:28;;;;;;;4.22;1.30;;;7.40;99.90;;;;;;5090213;28;20120;-81
2022/04/05 09:40:13;;;;;;;4.55;1.50;;;7.50;99.90;;;;;;5047352;28;20040;-84
2022/04/05 09:42:57;;;;;;;3.03;1.48;;;7.50;99.90;;;;;;5065813;28;20062;-81
2022/04/05 09:45:48;;;;;;;6.68;1.17;;;7.50;99.90;;;;;;5049931;28;20036;-84
2022/04/05 09:48:17;;;;;;;5.05;1.38;;;7.50;99.90;;;;;;5067261;28;20134;-83
2022/04/05 09:50:57;;;;;;;6.43;1.38;;;7.40;99.90;;;;;;5081584;28;20040;-81
2022/04/05 09:53:23;;;;;;;5.82;1.10;;;7.40;99.90;;;;;;5067259;28;20048;-82
2022/04/05 09:56:02;;;;;;;4.90;1.13;;;7.40;99.90;;;;;;5087215;28;20048;-83
2022/04/05 09:58:28;;;;;;;6.03;1.27;;;7.40;99.90;;;;;;5061172;28;20460;-81
2022/04/05 10:01:07;;;;;;;2.50;1.20;;;7.40;99.90;;;;;;5071258;28;20811;-86
2022/04/05 10:03:35;;;;;;;4.28;0.95;;;7.40;99.90;;;;;;5065096;28;20047;-85
2022/04/05 10:06:02;;;;;;;4.88;1.63;;;7.50;99.90;;;;;;5052967;28;20201;-87
2022/04/05 10:08:31;;;;;;;1.30;0.80;;;7.50;99.90;;;;;;5090633;28;20588;-84
2022/04/05 10:10:57;;;;;;;4.40;1.25;;;7.50;99.90;;;;;;5061198;28;20044;-81
2022/04/05 10:13:22;;;;;;;1.17;0.68;;;7.50;99.90;;;;;;5086700;28;20133;-88
2022/04/05 10:15:51;;;;;;;1.95;0.73;;;9.00;99.90;;;;;;5069474;28;20040;-81
2022/04/05 10:18:18;;;;;;;1.92;0.70;;;7.50;99.90;;;;;;5085581;28;20435;-81
2022/04/05 10:20:47;;;;;;;3.17;0.60;;;7.50;99.90;;;;;;5079663;28;20275;-81
2022/04/05 10:23:18;;;;;;;2.05;0.55;;;7.60;99.90;;;;;;5068847;28;20472;-82
2022/04/05 10:25:47;;;;;;;4.00;0.60;;;7.60;99.90;;;;;;5089127;28;20084;-80
2022/04/05 10:28:16;;;;;;;1.02;0.70;;;7.50;99.90;;;;;;5065813;28;20060;-89
2022/04/05 10:30:48;;;;;;;2.45;0.68;;;7.50;99.90;;;;;;5083099;28;20048;-81
2022/04/05 10:33:42;;;;;;;1.13;0.57;;;7.60;99.90;;;;;;5081800;28;20083;-86
2022/04/05 10:36:08;;;;;;;1.30;0.43;;;7.60;99.90;;;;;;5090896;28;20051;-80
2022/04/05 10:38:35;;;;;;;0.63;0.43;;;7.70;99.90;;;;;;5086727;28;20048;-81
2022/04/05 10:41:29;;;;;;;0.77;0.45;;;7.70;99.90;;;;;;4381981;28;10000696;-86
2022/04/05 10:44:16;;;;;;;1.63;0.47;;;7.40;99.90;;;;;;5082897;28;20051;-79
2022/04/05 10:46:50;;;;;;;1.27;0.55;;;7.80;99.90;;;;;;5084805;28;20056;-87
2022/04/05 10:49:32;;;;;;;1.73;0.60;;;7.80;99.90;;;;;;5066345;28;20110;-85
2022/04/05 10:52:08;;;;;;;1.08;0.60;;;7.90;99.90;;;;;;5084960;28;20044;-87
2022/04/05 10:54:52;;;;;;;1.05;0.47;;;7.90;99.90;;;;;;5085600;28;20097;-91
2022/04/05 10:57:32;;;;;;;1.88;0.60;;;7.80;99.90;;;;;;5091273;28;20526;-80
2022/04/05 11:00:10;;;;;;;0.65;0.52;;;8.00;99.90;;;;;;5071203;28;20507;-80
2022/04/05 11:03:00;;;;;;;1.85;0.40;;;8.00;99.90;;;;;;5069224;28;20052;-86
2022/04/05 11:05:35;;;;;;;0.30;0.30;;;8.10;99.90;;;;;;5079789;28;20047;-81
2022/04/05 11:08:09;;;;;;;0.40;0.40;;;8.10;99.90;;;;;;5086513;28;20051;-90
2022/04/05 11:10:39;;;;;;;0.98;0.40;;;8.20;99.90;;;;;;5066447;28;21577;-79
2022/04/05 11:13:34;;;;;;;2.00;0.50;;;8.20;99.90;;;;;;5080940;28;20508;-85
2022/04/05 11:16:02;;;;;;;0.40;0.40;;;8.30;99.90;;;;;;5078172;28;20029;-82
2022/04/05 11:18:35;;;;;;;0.50;0.50;;;8.30;99.90;;;;;;5085312;28;20641;-80
2022/04/05 11:21:06;;;;;;;0.95;0.45;;;8.20;99.90;;;;;;5064275;28;20048;-93
2022/04/05 11:23:47;;;;;;;1.55;0.60;;;8.20;99.90;;;;;;5077482;28;20157;-89
2022/04/05 11:26:30;;;;;;;0.75;0.73;;;8.40;99.90;;;;;;5086649;28;20744;-81
2022/04/05 11:28:57;;;;;;;2.63;0.60;;;8.50;99.90;;;;;;5068911;28;20036;-80
2022/04/05 11:31:27;;;;;;;0.40;0.40;;;10.60;99.90;;;;;;5066146;28;20043;-83
2022/04/05 11:33:53;;;;;;;0.50;0.50;;;8.60;99.90;;;;;;5077600;28;20121;-81
2022/04/05 11:36:23;;;;;;;0.63;0.52;;;8.60;99.90;;;;;;5088350;28;20028;-80
2022/04/05 11:38:56;;;;;;;0.60;0.60;;;8.70;99.90;;;;;;5080467;28;20047;-88
2022/04/05 11:41:30;;;;;;;0.60;0.60;;;8.70;99.90;;;;;;5074617;28;20036;-80
2022/04/05 11:44:05;;;;;;;1.08;0.60;;;8.70;99.90;;;;;;5082265;28;20054;-80
2022/04/05 11:46:34;;;;;;;;;;;8.80;99.90;;;;;;5083247;28;20039;-86
2022/04/05 11:49:03;;;;;;;0.60;0.60;;;8.80;99.90;;;;;;5091053;28;19920;-89
2022/04/05 11:51:35;;;;;;;0.85;0.85;;;8.90;99.90;;;;;;5063328;28;20107;-80
2022/04/05 11:54:23;;;;;;;0.95;0.75;;;8.90;99.90;;;;;;5075746;28;20051;-91
2022/04/05 11:56:49;;;;;;;0.80;0.80;;;9.00;99.90;;;;;;5087073;28;20036;-88
2022/04/05 11:59:17;;;;;;;1.02;0.75;;;9.10;99.90;;;;;;5083637;28;20048;-81
2022/04/05 12:01:49;;;;;;;1.38;1.27;;;9.00;99.90;;;;;;5070570;28;20086;-91
2022/04/05 12:04:17;;;;;;;0.90;0.90;;;10.40;99.90;;;;;;5049157;28;20044;-81
2022/04/05 12:06:47;;;;;;;4.10;1.30;;;11.10;99.90;;;;;;5083032;28;20031;-88
2022/04/05 12:09:16;;;;;;;1.33;1.23;;;9.20;99.90;;;;;;5070326;28;20040;-81
2022/04/05 12:11:45;;;;;;;1.17;1.17;;;9.20;99.90;;;;;;5068379;28;20044;-80
2022/04/05 12:14:15;;;;;;;1.67;1.58;;;9.20;99.90;;;;;;5088467;28;20043;-91
2022/04/05 12:16:55;;;;;;;1.70;1.60;;;9.30;99.90;;;;;;5093120;28;20032;-85
2022/04/05 12:19:34;;;;;;;2.17;2.00;;;9.30;99.90;;;;;;5080003;28;20058;-81
2022/04/05 12:22:09;;;;;;;1.42;1.33;;;9.30;99.90;;;;;;5085202;28;20075;-83
2022/04/05 12:24:35;;;;;;;;;;;9.20;99.90;;;;;;5083774;28;20430;-81
2022/04/05 12:27:03;;;;;;;1.58;1.48;;;9.30;99.90;;;;;;5081416;28;20383;-89
2022/04/05 12:29:30;;;;;;;1.80;1.70;;;9.30;99.90;;;;;;5070811;28;20048;-82
2022/04/05 12:32:04;;;;;;;1.85;1.75;;;10.90;99.90;;;;;;5079694;28;20422;-80
2022/04/05 12:34:30;;;;;;;2.03;1.88;;;9.80;99.90;;;;;;5088348;28;20036;-90
2022/04/05 12:36:59;;;;;;;2.33;2.13;;;9.50;99.90;;;;;;5083180;28;20510;-76
2022/04/05 12:39:30;;;;;;;2.25;1.80;;;9.60;99.90;;;;;;5081850;28;20455;-77
2022/04/05 12:42:03;;;;;;;3.30;2.45;;;9.70;99.90;;;;;;5088286;28;20108;-87
2022/04/05 12:44:34;;;;;;;4.72;2.80;;;9.80;99.90;;;;;;5072082;28;20028;-79
2022/04/05 12:47:14;;;;;;;6.93;2.90;;;9.70;99.90;;;;;;5088518;28;20119;-77
2022/04/05 12:49:51;;;;;;;3.30;3.00;;;9.90;99.90;;;;;;5086737;28;20032;-78
2022/04/05 12:52:20;;;;;;;5.93;3.70;;;9.80;99.90;;;;;;5071654;28;20043;-91
2022/04/05 12:54:49;;;;;;;4.07;3.72;;;9.80;99.90;;;;;;5086228;28;20035;-91
2022/04/05 12:57:40;;;;;;;5.90;3.40;;;9.70;99.90;;;;;;5085056;28;20857;-90
2022/04/05 13:00:24;;;;;;;7.13;4.28;;;10.30;99.90;;;;;;5077366;28;20048;-92